Time,TemperatureF,DewpointF,PressureIn,WindDirection,WindDirectionDegrees,WindSpeedMPH,WindSpeedGustMPH,Humidity,HourlyPrecipIn,Conditions,Clouds,dailyrainin,SolarRadiationWatts/m^2,SoftwareType,DateUTC
2013-10-10 00:02:00,36.0,33.0,-100.00,SW,218,2.0,5.0,88,0.00,,,0.00,0.000000,,2013-10-10 07:02:00,
2013-10-10 00:11:00,36.0,33.0,-100.00,SW,218,2.0,5.0,88,0.00,,,0.00,0.000000,,2013-10-10 07:11:00,
2013-10-10 00:21:00,36.0,33.0,-100.00,SW,218,2.0,5.0,88,0.00,,,0.00,0.000000,,2013-10-10 07:21:00,
2013-10-10 00:31:00,36.0,33.0,-100.00,SSW,203,2.0,4.0,90,0.00,,,0.00,0.000000,,2013-10-10 07:31:00,
2013-10-10 01:11:00,36.0,33.0,-100.00,SSW,203,2.0,4.0,90,0.00,,,0.00,0.000000,,2013-10-10 08:11:00,
2013-10-10 01:22:00,36.0,33.0,-100.00,SSW,203,2.0,4.0,90,0.00,,,0.00,0.000000,,2013-10-10 08:22:00,
2013-10-10 01:31:00,36.0,33.0,-100.00,SSW,205,3.0,4.0,89,0.00,,,0.00,0.000000,,2013-10-10 08:31:00,
2013-10-10 01:52:00,36.0,33.0,-100.00,SSW,205,3.0,4.0,89,0.00,,,0.00,0.000000,,2013-10-10 08:52:00,
2013-10-10 02:02:00,36.0,33.0,-100.00,SSW,205,3.0,4.0,89,0.00,,,0.00,0.000000,,2013-10-10 09:02:00,
2013-10-10 02:11:00,36.0,33.0,-100.00,SSW,205,3.0,4.0,89,0.00,,,0.00,0.000000,,2013-10-10 09:11:00,
2013-10-10 02:21:00,36.0,33.0,-100.00,SSW,205,3.0,4.0,89,0.00,,,0.00,0.000000,,2013-10-10 09:21:00,
2013-10-10 02:31:00,37.0,34.0,-100.00,SSE,165,3.0,5.0,89,0.00,,,0.00,0.000000,,2013-10-10 09:31:00,
2013-10-10 02:53:00,37.0,34.0,-100.00,SSE,165,3.0,5.0,89,0.00,,,0.00,0.000000,,2013-10-10 09:53:00,
2013-10-10 03:03:00,37.0,34.0,-100.00,SSE,165,3.0,5.0,89,0.00,,,0.00,0.000000,,2013-10-10 10:03:00,
2013-10-10 03:12:00,37.0,34.0,-100.00,SSE,165,3.0,5.0,89,0.00,,,0.00,0.000000,,2013-10-10 10:12:00,
2013-10-10 03:23:00,37.0,34.0,-100.00,SSE,165,3.0,5.0,89,0.00,,,0.00,0.000000,,2013-10-10 10:23:00,
2013-10-10 03:31:00,37.0,33.0,-100.00,West,262,1.0,5.0,86,0.00,,,0.00,0.000000,,2013-10-10 10:31:00,
2013-10-10 03:53:00,37.0,33.0,-100.00,West,262,1.0,5.0,86,0.00,,,0.00,0.000000,,2013-10-10 10:53:00,
2013-10-10 04:02:00,37.0,33.0,-100.00,West,262,1.0,5.0,86,0.00,,,0.00,0.000000,,2013-10-10 11:02:00,
2013-10-10 04:12:00,37.0,33.0,-100.00,West,262,1.0,5.0,86,0.00,,,0.00,0.000000,,2013-10-10 11:12:00,
2013-10-10 04:22:00,37.0,33.0,-100.00,West,262,1.0,5.0,86,0.00,,,0.00,0.000000,,2013-10-10 11:22:00,
2013-10-10 06:31:00,35.0,32.0,-100.00,South,174,4.0,6.0,89,-99.99,,,0.00,0.000000,,2013-10-10 13:31:00,
2013-10-10 06:52:00,35.0,32.0,-100.00,South,174,4.0,6.0,89,-99.99,,,0.00,0.000000,,2013-10-10 13:52:00,
2013-10-10 07:02:00,35.0,32.0,-100.00,South,174,4.0,6.0,89,-99.99,,,0.00,0.000000,,2013-10-10 14:02:00,
2013-10-10 07:11:00,35.0,32.0,-100.00,South,174,4.0,6.0,89,-99.99,,,0.00,0.000000,,2013-10-10 14:11:00,
2013-10-10 07:21:00,35.0,32.0,-100.00,South,174,4.0,6.0,89,-99.99,,,0.00,0.000000,,2013-10-10 14:21:00,
2013-10-10 07:31:00,34.0,31.0,-100.00,SSE,150,2.0,6.0,89,0.00,,,0.00,1.000000,,2013-10-10 14:31:00,
2013-10-10 07:52:00,34.0,31.0,-100.00,SSE,150,2.0,6.0,89,0.00,,,0.00,1.000000,,2013-10-10 14:52:00,
2013-10-10 08:02:00,34.0,31.0,-100.00,SSE,150,2.0,6.0,89,0.00,,,0.00,1.000000,,2013-10-10 15:02:00,
2013-10-10 08:11:00,34.0,31.0,-100.00,SSE,150,2.0,6.0,89,0.00,,,0.00,1.000000,,2013-10-10 15:11:00,
2013-10-10 08:22:00,34.0,31.0,-100.00,SSE,150,2.0,6.0,89,0.00,,,0.00,1.000000,,2013-10-10 15:22:00,
2013-10-10 08:31:00,37.0,34.0,-100.00,SSW,196,4.0,8.0,88,0.00,,,0.00,37.000000,,2013-10-10 15:31:00,
2013-10-10 08:54:00,37.0,34.0,-100.00,SSW,196,4.0,8.0,88,0.00,,,0.00,37.000000,,2013-10-10 15:54:00,
2013-10-10 09:03:00,37.0,34.0,-100.00,SSW,196,4.0,8.0,88,0.00,,,0.00,37.000000,,2013-10-10 16:03:00,
2013-10-10 09:13:00,37.0,34.0,-100.00,SSW,196,4.0,8.0,88,0.00,,,0.00,37.000000,,2013-10-10 16:13:00,
2013-10-10 09:23:00,37.0,34.0,-100.00,SSW,196,4.0,8.0,88,0.00,,,0.00,37.000000,,2013-10-10 16:23:00,
2013-10-10 09:31:00,41.0,36.0,-100.00,SSW,201,4.0,7.0,81,0.00,,,0.00,104.000000,,2013-10-10 16:31:00,
2013-10-10 10:12:00,41.0,36.0,-100.00,SSW,201,4.0,7.0,81,0.00,,,0.00,104.000000,,2013-10-10 17:12:00,
2013-10-10 10:23:00,41.0,36.0,-100.00,SSW,201,4.0,7.0,81,0.00,,,0.00,104.000000,,2013-10-10 17:23:00,
2013-10-10 10:31:00,46.0,35.0,-100.00,South,178,6.0,10.0,65,0.00,,,0.00,372.000000,,2013-10-10 17:31:00,
2013-10-10 10:52:00,46.0,35.0,-100.00,South,178,6.0,10.0,65,0.00,,,0.00,372.000000,,2013-10-10 17:52:00,
2013-10-10 11:02:00,46.0,35.0,-100.00,South,178,6.0,10.0,65,0.00,,,0.00,372.000000,,2013-10-10 18:02:00,
2013-10-10 11:12:00,46.0,35.0,-100.00,South,178,6.0,10.0,65,0.00,,,0.00,372.000000,,2013-10-10 18:12:00,
2013-10-10 11:21:00,46.0,35.0,-100.00,South,178,6.0,10.0,65,0.00,,,0.00,372.000000,,2013-10-10 18:21:00,
2013-10-10 11:31:00,50.0,33.0,-100.00,South,181,6.0,12.0,52,0.00,,,0.00,521.000000,,2013-10-10 18:31:00,
2013-10-10 12:11:00,50.0,33.0,-100.00,South,181,6.0,12.0,52,0.00,,,0.00,521.000000,,2013-10-10 19:11:00,
2013-10-10 12:21:00,50.0,33.0,-100.00,South,181,6.0,12.0,52,0.00,,,0.00,521.000000,,2013-10-10 19:21:00,
2013-10-10 12:31:00,54.0,34.0,-100.00,North,357,5.0,10.0,46,0.00,,,0.00,610.000000,,2013-10-10 19:31:00,
2013-10-10 12:53:00,54.0,34.0,-100.00,North,357,5.0,10.0,46,0.00,,,0.00,610.000000,,2013-10-10 19:53:00,
2013-10-10 13:02:00,54.0,34.0,-100.00,North,357,5.0,10.0,46,0.00,,,0.00,610.000000,,2013-10-10 20:02:00,
2013-10-10 13:12:00,54.0,34.0,-100.00,North,357,5.0,10.0,46,0.00,,,0.00,610.000000,,2013-10-10 20:12:00,
2013-10-10 13:22:00,54.0,34.0,-100.00,North,357,5.0,10.0,46,0.00,,,0.00,610.000000,,2013-10-10 20:22:00,
2013-10-10 13:31:00,56.0,33.0,-100.00,NNE,13,5.0,11.0,42,0.00,,,0.00,660.000000,,2013-10-10 20:31:00,
2013-10-10 13:52:00,56.0,33.0,-100.00,NNE,13,5.0,11.0,42,0.00,,,0.00,660.000000,,2013-10-10 20:52:00,
2013-10-10 14:03:00,56.0,33.0,-100.00,NNE,13,5.0,11.0,42,0.00,,,0.00,660.000000,,2013-10-10 21:03:00,
2013-10-10 14:12:00,56.0,33.0,-100.00,NNE,13,5.0,11.0,42,0.00,,,0.00,660.000000,,2013-10-10 21:12:00,
2013-10-10 14:21:00,56.0,33.0,-100.00,NNE,13,5.0,11.0,42,0.00,,,0.00,660.000000,,2013-10-10 21:21:00,
2013-10-10 14:31:00,51.0,33.0,-100.00,NW,309,4.0,14.0,50,0.00,,,0.00,261.000000,,2013-10-10 21:31:00,
2013-10-10 14:54:00,51.0,33.0,-100.00,NW,309,4.0,14.0,50,0.00,,,0.00,261.000000,,2013-10-10 21:54:00,
2013-10-10 15:04:00,51.0,33.0,-100.00,NW,309,4.0,14.0,50,0.00,,,0.00,261.000000,,2013-10-10 22:04:00,
2013-10-10 15:13:00,51.0,33.0,-100.00,NW,309,4.0,14.0,50,0.00,,,0.00,261.000000,,2013-10-10 22:13:00,
2013-10-10 15:24:00,51.0,33.0,-100.00,NW,309,4.0,14.0,50,0.00,,,0.00,261.000000,,2013-10-10 22:24:00,
2013-10-10 15:31:00,56.0,34.0,-100.00,NW,318,4.0,14.0,43,0.00,,,0.00,379.000000,,2013-10-10 22:31:00,
2013-10-10 15:53:00,56.0,34.0,-100.00,NW,318,4.0,14.0,43,0.00,,,0.00,379.000000,,2013-10-10 22:53:00,
2013-10-10 16:03:00,56.0,34.0,-100.00,NW,318,4.0,14.0,43,0.00,,,0.00,379.000000,,2013-10-10 23:03:00,
2013-10-10 16:12:00,56.0,34.0,-100.00,NW,318,4.0,14.0,43,0.00,,,0.00,379.000000,,2013-10-10 23:12:00,
2013-10-10 16:23:00,56.0,34.0,-100.00,NW,318,4.0,14.0,43,0.00,,,0.00,379.000000,,2013-10-10 23:23:00,
2013-10-10 16:31:00,55.0,32.0,-100.00,SW,236,4.0,10.0,42,0.00,,,0.00,358.000000,,2013-10-10 23:31:00,
2013-10-10 16:52:00,55.0,32.0,-100.00,SW,236,4.0,10.0,42,0.00,,,0.00,358.000000,,2013-10-10 23:52:00,
2013-10-10 17:02:00,55.0,32.0,-100.00,SW,236,4.0,10.0,42,0.00,,,0.00,358.000000,,2013-10-11 00:02:00,
2013-10-10 17:11:00,55.0,32.0,-100.00,SW,236,4.0,10.0,42,0.00,,,0.00,358.000000,,2013-10-11 00:11:00,
2013-10-10 17:21:00,55.0,32.0,-100.00,SW,236,4.0,10.0,42,0.00,,,0.00,358.000000,,2013-10-11 00:21:00,
2013-10-10 17:31:00,53.0,33.0,-100.00,NE,44,1.0,8.0,46,0.00,,,0.00,192.000000,,2013-10-11 00:31:00,
2013-10-10 17:52:00,53.0,33.0,-100.00,NE,44,1.0,8.0,46,0.00,,,0.00,192.000000,,2013-10-11 00:52:00,
2013-10-10 18:01:00,53.0,33.0,-100.00,NE,44,1.0,8.0,46,0.00,,,0.00,192.000000,,2013-10-11 01:01:00,
2013-10-10 18:11:00,53.0,33.0,-100.00,NE,44,1.0,8.0,46,0.00,,,0.00,192.000000,,2013-10-11 01:11:00,
2013-10-10 18:21:00,53.0,33.0,-100.00,NE,44,1.0,8.0,46,0.00,,,0.00,192.000000,,2013-10-11 01:21:00,
2013-10-10 18:31:00,45.0,33.0,-100.00,SW,216,3.0,7.0,62,0.00,,,0.00,21.000000,,2013-10-11 01:31:00,
2013-10-10 18:52:00,45.0,33.0,-100.00,SW,216,3.0,7.0,62,0.00,,,0.00,21.000000,,2013-10-11 01:52:00,
2013-10-10 19:02:00,45.0,33.0,-100.00,SW,216,3.0,7.0,62,0.00,,,0.00,21.000000,,2013-10-11 02:02:00,
2013-10-10 19:12:00,45.0,33.0,-100.00,SW,216,3.0,7.0,62,0.00,,,0.00,21.000000,,2013-10-11 02:12:00,
2013-10-10 19:22:00,45.0,33.0,-100.00,SW,216,3.0,7.0,62,0.00,,,0.00,21.000000,,2013-10-11 02:22:00,
2013-10-10 19:31:00,42.0,32.0,-100.00,South,188,2.0,5.0,67,0.00,,,0.00,0.000000,,2013-10-11 02:31:00,
2013-10-10 19:52:00,42.0,32.0,-100.00,South,188,2.0,5.0,67,0.00,,,0.00,0.000000,,2013-10-11 02:52:00,
2013-10-10 20:02:00,42.0,32.0,-100.00,South,188,2.0,5.0,67,0.00,,,0.00,0.000000,,2013-10-11 03:02:00,
2013-10-10 20:11:00,42.0,32.0,-100.00,South,188,2.0,5.0,67,0.00,,,0.00,0.000000,,2013-10-11 03:11:00,
2013-10-10 20:23:00,42.0,32.0,-100.00,South,188,2.0,5.0,67,0.00,,,0.00,0.000000,,2013-10-11 03:23:00,
2013-10-10 20:31:00,41.0,33.0,-100.00,SSW,203,3.0,7.0,72,0.00,,,0.00,0.000000,,2013-10-11 03:31:00,
2013-10-10 20:54:00,41.0,33.0,-100.00,SSW,203,3.0,7.0,72,0.00,,,0.00,0.000000,,2013-10-11 03:54:00,
2013-10-10 21:04:00,41.0,33.0,-100.00,SSW,203,3.0,7.0,72,0.00,,,0.00,0.000000,,2013-10-11 04:04:00,
2013-10-10 21:13:00,41.0,33.0,-100.00,SSW,203,3.0,7.0,72,0.00,,,0.00,0.000000,,2013-10-11 04:13:00,
2013-10-10 21:24:00,41.0,33.0,-100.00,SSW,203,3.0,7.0,72,0.00,,,0.00,0.000000,,2013-10-11 04:24:00,
2013-10-10 21:31:00,39.0,33.0,-100.00,SSW,205,3.0,6.0,79,0.00,,,0.00,0.000000,,2013-10-11 04:31:00,
2013-10-10 21:53:00,39.0,33.0,-100.00,SSW,205,3.0,6.0,79,0.00,,,0.00,0.000000,,2013-10-11 04:53:00,
2013-10-10 22:03:00,39.0,33.0,-100.00,SSW,205,3.0,6.0,79,0.00,,,0.00,0.000000,,2013-10-11 05:03:00,
2013-10-10 22:13:00,39.0,33.0,-100.00,SSW,205,3.0,6.0,79,0.00,,,0.00,0.000000,,2013-10-11 05:13:00,
2013-10-10 22:23:00,39.0,33.0,-100.00,SSW,205,3.0,6.0,79,0.00,,,0.00,0.000000,,2013-10-11 05:23:00,
2013-10-10 22:31:00,40.0,35.0,-100.00,SSW,200,3.0,7.0,82,0.00,,,0.00,0.000000,,2013-10-11 05:31:00,
2013-10-10 22:52:00,40.0,35.0,-100.00,SSW,200,3.0,7.0,82,0.00,,,0.00,0.000000,,2013-10-11 05:52:00,
2013-10-10 23:02:00,40.0,35.0,-100.00,SSW,200,3.0,7.0,82,0.00,,,0.00,0.000000,,2013-10-11 06:02:00,
2013-10-10 23:12:00,40.0,35.0,-100.00,SSW,200,3.0,7.0,82,0.00,,,0.00,0.000000,,2013-10-11 06:12:00,
2013-10-10 23:22:00,40.0,35.0,-100.00,SSW,200,3.0,7.0,82,0.00,,,0.00,0.000000,,2013-10-11 06:22:00,
2013-10-10 23:31:00,38.0,34.0,-100.00,South,188,2.0,6.0,87,0.00,,,0.00,0.000000,,2013-10-11 06:31:00,
2013-10-10 23:52:00,38.0,34.0,-100.00,South,188,2.0,6.0,87,0.00,,,0.00,0.000000,,2013-10-11 06:52:00,